sensor_id;sensor_type;location;lat;lon;timestamp;temperature;humidity
39665;DHT22;26679;50.872;4.332;2023-07-13T00:01:57;18.20;99.90
39665;DHT22;26679;50.872;4.332;2023-07-13T00:04:23;18.20;99.90
39665;DHT22;26679;50.872;4.332;2023-07-13T00:06:50;18.10;99.90
39665;DHT22;26679;50.872;4.332;2023-07-13T00:09:16;18.00;99.90
39665;DHT22;26679;50.872;4.332;2023-07-13T00:11:43;18.00;99.90
39665;DHT22;26679;50.872;4.332;2023-07-13T00:14:08;18.00;99.90
39665;DHT22;26679;50.872;4.332;2023-07-13T00:16:38;18.00;99.90
39665;DHT22;26679;50.872;4.332;2023-07-13T00:19:04;17.90;99.90
39665;DHT22;26679;50.872;4.332;2023-07-13T00:21:30;17.90;99.90
39665;DHT22;26679;50.872;4.332;2023-07-13T00:23:55;17.90;99.90
39665;DHT22;26679;50.872;4.332;2023-07-13T00:26:21;17.80;99.90
39665;DHT22;26679;50.872;4.332;2023-07-13T00:28:46;17.80;99.90
39665;DHT22;26679;50.872;4.332;2023-07-13T00:31:12;17.90;99.90
39665;DHT22;26679;50.872;4.332;2023-07-13T00:33:39;17.90;99.90
39665;DHT22;26679;50.872;4.332;2023-07-13T00:36:05;17.90;99.90
39665;DHT22;26679;50.872;4.332;2023-07-13T00:38:31;17.80;99.90
39665;DHT22;26679;50.872;4.332;2023-07-13T00:40:56;17.80;99.90
39665;DHT22;26679;50.872;4.332;2023-07-13T00:43:23;17.70;99.90
39665;DHT22;26679;50.872;4.332;2023-07-13T00:48:15;17.60;99.90
39665;DHT22;26679;50.872;4.332;2023-07-13T00:50:42;17.60;99.90
39665;DHT22;26679;50.872;4.332;2023-07-13T00:53:09;17.60;99.90
39665;DHT22;26679;50.872;4.332;2023-07-13T00:55:35;17.60;99.90
39665;DHT22;26679;50.872;4.332;2023-07-13T00:58:01;17.60;99.90
39665;DHT22;26679;50.872;4.332;2023-07-13T01:00:27;17.60;99.90
39665;DHT22;26679;50.872;4.332;2023-07-13T01:02:54;17.50;99.90
39665;DHT22;26679;50.872;4.332;2023-07-13T01:05:21;17.50;99.90
39665;DHT22;26679;50.872;4.332;2023-07-13T01:07:48;17.50;99.90
39665;DHT22;26679;50.872;4.332;2023-07-13T01:10:14;17.40;99.90
39665;DHT22;26679;50.872;4.332;2023-07-13T01:12:40;17.40;99.90
39665;DHT22;26679;50.872;4.332;2023-07-13T01:15:32;17.40;99.90
39665;DHT22;26679;50.872;4.332;2023-07-13T01:17:51;17.50;99.90
39665;DHT22;26679;50.872;4.332;2023-07-13T01:20:16;17.40;99.90
39665;DHT22;26679;50.872;4.332;2023-07-13T01:22:42;17.50;99.90
39665;DHT22;26679;50.872;4.332;2023-07-13T01:25:08;17.50;99.90
39665;DHT22;26679;50.872;4.332;2023-07-13T01:27:33;17.50;99.90
39665;DHT22;26679;50.872;4.332;2023-07-13T01:29:59;17.40;99.90
39665;DHT22;26679;50.872;4.332;2023-07-13T01:32:29;17.40;99.90
39665;DHT22;26679;50.872;4.332;2023-07-13T01:34:56;17.30;99.90
39665;DHT22;26679;50.872;4.332;2023-07-13T01:37:25;17.20;99.90
39665;DHT22;26679;50.872;4.332;2023-07-13T01:39:51;17.20;99.90
39665;DHT22;26679;50.872;4.332;2023-07-13T01:42:17;17.20;99.90
39665;DHT22;26679;50.872;4.332;2023-07-13T01:44:42;17.30;99.90
39665;DHT22;26679;50.872;4.332;2023-07-13T01:47:08;17.30;99.90
39665;DHT22;26679;50.872;4.332;2023-07-13T01:49:34;17.40;99.90
39665;DHT22;26679;50.872;4.332;2023-07-13T01:51:59;17.30;99.90
39665;DHT22;26679;50.872;4.332;2023-07-13T01:54:25;17.20;99.90
39665;DHT22;26679;50.872;4.332;2023-07-13T01:56:50;17.20;99.90
39665;DHT22;26679;50.872;4.332;2023-07-13T01:59:16;17.20;99.90
39665;DHT22;26679;50.872;4.332;2023-07-13T02:01:41;17.20;99.90
39665;DHT22;26679;50.872;4.332;2023-07-13T02:04:07;17.20;99.90
39665;DHT22;26679;50.872;4.332;2023-07-13T02:06:32;17.30;99.90
39665;DHT22;26679;50.872;4.332;2023-07-13T02:08:58;17.20;99.90
39665;DHT22;26679;50.872;4.332;2023-07-13T02:11:24;17.10;99.90
39665;DHT22;26679;50.872;4.332;2023-07-13T02:13:50;17.00;99.90
39665;DHT22;26679;50.872;4.332;2023-07-13T02:16:16;16.90;99.90
39665;DHT22;26679;50.872;4.332;2023-07-13T02:18:41;16.80;99.90
39665;DHT22;26679;50.872;4.332;2023-07-13T02:21:07;16.90;99.90
39665;DHT22;26679;50.872;4.332;2023-07-13T02:23:32;16.80;99.90
39665;DHT22;26679;50.872;4.332;2023-07-13T02:25:58;16.80;99.90
39665;DHT22;26679;50.872;4.332;2023-07-13T02:28:24;16.90;99.90
39665;DHT22;26679;50.872;4.332;2023-07-13T02:30:50;16.80;99.90
39665;DHT22;26679;50.872;4.332;2023-07-13T02:33:15;16.80;99.90
39665;DHT22;26679;50.872;4.332;2023-07-13T02:35:41;16.80;99.90
39665;DHT22;26679;50.872;4.332;2023-07-13T02:38:07;16.90;99.90
39665;DHT22;26679;50.872;4.332;2023-07-13T02:40:33;16.90;99.90
39665;DHT22;26679;50.872;4.332;2023-07-13T02:43:01;16.90;99.90
39665;DHT22;26679;50.872;4.332;2023-07-13T02:45:26;16.90;99.90
39665;DHT22;26679;50.872;4.332;2023-07-13T02:47:52;16.90;99.90
39665;DHT22;26679;50.872;4.332;2023-07-13T02:50:17;16.90;99.90
39665;DHT22;26679;50.872;4.332;2023-07-13T02:52:43;16.90;99.90
39665;DHT22;26679;50.872;4.332;2023-07-13T02:55:08;16.70;99.90
39665;DHT22;26679;50.872;4.332;2023-07-13T02:57:34;16.70;99.90
39665;DHT22;26679;50.872;4.332;2023-07-13T03:00:00;16.70;99.90
39665;DHT22;26679;50.872;4.332;2023-07-13T03:02:25;16.80;99.90
39665;DHT22;26679;50.872;4.332;2023-07-13T03:04:54;16.80;99.90
39665;DHT22;26679;50.872;4.332;2023-07-13T03:07:19;16.70;99.90
39665;DHT22;26679;50.872;4.332;2023-07-13T03:09:45;16.70;99.90
39665;DHT22;26679;50.872;4.332;2023-07-13T03:12:10;16.60;99.90
39665;DHT22;26679;50.872;4.332;2023-07-13T03:14:36;16.60;99.90
39665;DHT22;26679;50.872;4.332;2023-07-13T03:17:01;16.70;99.90
39665;DHT22;26679;50.872;4.332;2023-07-13T03:19:27;16.60;99.90
39665;DHT22;26679;50.872;4.332;2023-07-13T03:21:53;16.50;99.90
39665;DHT22;26679;50.872;4.332;2023-07-13T03:24:19;16.50;99.90
39665;DHT22;26679;50.872;4.332;2023-07-13T03:26:44;16.50;99.90
39665;DHT22;26679;50.872;4.332;2023-07-13T03:29:10;16.60;99.90
39665;DHT22;26679;50.872;4.332;2023-07-13T03:31:36;16.50;99.90
39665;DHT22;26679;50.872;4.332;2023-07-13T03:34:01;16.60;99.90
39665;DHT22;26679;50.872;4.332;2023-07-13T03:36:29;16.70;99.90
39665;DHT22;26679;50.872;4.332;2023-07-13T03:38:58;16.70;99.90
39665;DHT22;26679;50.872;4.332;2023-07-13T03:41:24;16.70;99.90
39665;DHT22;26679;50.872;4.332;2023-07-13T03:43:51;16.60;99.90
39665;DHT22;26679;50.872;4.332;2023-07-13T03:46:16;16.70;99.90
39665;DHT22;26679;50.872;4.332;2023-07-13T03:48:43;16.70;99.90
39665;DHT22;26679;50.872;4.332;2023-07-13T03:51:10;16.70;99.90
39665;DHT22;26679;50.872;4.332;2023-07-13T03:53:39;16.70;99.90
39665;DHT22;26679;50.872;4.332;2023-07-13T03:56:05;16.70;99.90
39665;DHT22;26679;50.872;4.332;2023-07-13T03:58:32;16.70;99.90
39665;DHT22;26679;50.872;4.332;2023-07-13T04:00:58;16.70;99.90
39665;DHT22;26679;50.872;4.332;2023-07-13T04:03:24;16.70;99.90
39665;DHT22;26679;50.872;4.332;2023-07-13T04:05:49;16.80;99.90
39665;DHT22;26679;50.872;4.332;2023-07-13T04:08:15;16.90;99.90
39665;DHT22;26679;50.872;4.332;2023-07-13T04:10:41;16.80;99.90
39665;DHT22;26679;50.872;4.332;2023-07-13T04:13:06;16.90;99.90
39665;DHT22;26679;50.872;4.332;2023-07-13T04:15:32;16.90;99.90
39665;DHT22;26679;50.872;4.332;2023-07-13T04:17:58;17.00;99.90
39665;DHT22;26679;50.872;4.332;2023-07-13T04:20:26;17.00;99.90
39665;DHT22;26679;50.872;4.332;2023-07-13T04:22:52;17.00;99.90
39665;DHT22;26679;50.872;4.332;2023-07-13T04:25:18;17.00;99.90
39665;DHT22;26679;50.872;4.332;2023-07-13T04:27:44;17.00;99.90
39665;DHT22;26679;50.872;4.332;2023-07-13T04:30:09;17.00;99.90
39665;DHT22;26679;50.872;4.332;2023-07-13T04:32:35;17.00;99.90
39665;DHT22;26679;50.872;4.332;2023-07-13T04:35:00;17.10;99.90
39665;DHT22;26679;50.872;4.332;2023-07-13T04:37:26;17.10;99.90
39665;DHT22;26679;50.872;4.332;2023-07-13T04:39:52;17.20;99.90
39665;DHT22;26679;50.872;4.332;2023-07-13T04:42:17;17.10;99.90
39665;DHT22;26679;50.872;4.332;2023-07-13T04:44:49;17.10;99.90
39665;DHT22;26679;50.872;4.332;2023-07-13T04:47:15;17.10;99.90
39665;DHT22;26679;50.872;4.332;2023-07-13T04:49:40;17.10;99.90
39665;DHT22;26679;50.872;4.332;2023-07-13T04:52:06;17.10;99.90
39665;DHT22;26679;50.872;4.332;2023-07-13T04:54:33;17.00;99.90
39665;DHT22;26679;50.872;4.332;2023-07-13T04:56:59;17.00;99.90
39665;DHT22;26679;50.872;4.332;2023-07-13T04:59:24;16.80;99.90
39665;DHT22;26679;50.872;4.332;2023-07-13T05:01:50;16.80;99.90
39665;DHT22;26679;50.872;4.332;2023-07-13T05:04:15;16.90;99.90
39665;DHT22;26679;50.872;4.332;2023-07-13T05:06:41;16.90;99.90
39665;DHT22;26679;50.872;4.332;2023-07-13T05:09:06;16.90;99.90
39665;DHT22;26679;50.872;4.332;2023-07-13T05:11:32;17.00;99.90
39665;DHT22;26679;50.872;4.332;2023-07-13T05:13:58;17.10;99.90
39665;DHT22;26679;50.872;4.332;2023-07-13T05:16:23;17.10;99.90
39665;DHT22;26679;50.872;4.332;2023-07-13T05:18:49;17.00;99.90
39665;DHT22;26679;50.872;4.332;2023-07-13T05:21:14;17.00;99.90
39665;DHT22;26679;50.872;4.332;2023-07-13T05:23:40;17.00;99.90
39665;DHT22;26679;50.872;4.332;2023-07-13T05:26:07;17.00;99.90
39665;DHT22;26679;50.872;4.332;2023-07-13T05:28:32;17.10;99.90
39665;DHT22;26679;50.872;4.332;2023-07-13T05:30:58;17.00;99.90
39665;DHT22;26679;50.872;4.332;2023-07-13T05:33:24;17.00;99.90
39665;DHT22;26679;50.872;4.332;2023-07-13T05:35:50;17.10;99.90
39665;DHT22;26679;50.872;4.332;2023-07-13T05:38:15;17.20;99.90
39665;DHT22;26679;50.872;4.332;2023-07-13T05:40:44;17.20;99.90
39665;DHT22;26679;50.872;4.332;2023-07-13T05:43:10;17.20;99.90
39665;DHT22;26679;50.872;4.332;2023-07-13T05:45:35;17.20;99.90
39665;DHT22;26679;50.872;4.332;2023-07-13T05:48:01;17.20;99.90
39665;DHT22;26679;50.872;4.332;2023-07-13T05:50:26;17.30;99.90
39665;DHT22;26679;50.872;4.332;2023-07-13T05:52:52;17.20;99.90
39665;DHT22;26679;50.872;4.332;2023-07-13T05:55:18;17.30;99.90
39665;DHT22;26679;50.872;4.332;2023-07-13T05:57:43;17.30;99.90
39665;DHT22;26679;50.872;4.332;2023-07-13T06:00:09;17.40;99.90
39665;DHT22;26679;50.872;4.332;2023-07-13T06:02:35;17.50;99.90
39665;DHT22;26679;50.872;4.332;2023-07-13T06:05:00;17.40;99.90
39665;DHT22;26679;50.872;4.332;2023-07-13T06:07:26;17.50;99.90
39665;DHT22;26679;50.872;4.332;2023-07-13T06:09:51;17.60;99.90
39665;DHT22;26679;50.872;4.332;2023-07-13T06:12:17;17.70;99.90
39665;DHT22;26679;50.872;4.332;2023-07-13T06:14:42;17.70;99.90
39665;DHT22;26679;50.872;4.332;2023-07-13T06:17:08;17.70;99.90
39665;DHT22;26679;50.872;4.332;2023-07-13T06:19:33;17.70;99.90
39665;DHT22;26679;50.872;4.332;2023-07-13T06:21:59;17.80;99.90
39665;DHT22;26679;50.872;4.332;2023-07-13T06:24:25;17.80;99.90
39665;DHT22;26679;50.872;4.332;2023-07-13T06:26:50;17.90;99.90
39665;DHT22;26679;50.872;4.332;2023-07-13T06:29:16;17.80;99.90
39665;DHT22;26679;50.872;4.332;2023-07-13T06:31:41;17.80;99.90
39665;DHT22;26679;50.872;4.332;2023-07-13T06:34:07;17.90;99.90
39665;DHT22;26679;50.872;4.332;2023-07-13T06:36:33;17.90;99.90
39665;DHT22;26679;50.872;4.332;2023-07-13T06:38:58;18.00;99.90
39665;DHT22;26679;50.872;4.332;2023-07-13T06:41:24;18.10;99.90
39665;DHT22;26679;50.872;4.332;2023-07-13T06:43:51;18.20;99.90
39665;DHT22;26679;50.872;4.332;2023-07-13T06:46:17;18.20;99.90
39665;DHT22;26679;50.872;4.332;2023-07-13T06:48:42;18.20;99.90
39665;DHT22;26679;50.872;4.332;2023-07-13T06:51:08;18.20;99.90
39665;DHT22;26679;50.872;4.332;2023-07-13T06:53:36;18.30;99.90
39665;DHT22;26679;50.872;4.332;2023-07-13T06:56:02;18.40;99.90
39665;DHT22;26679;50.872;4.332;2023-07-13T06:58:28;18.70;99.90
39665;DHT22;26679;50.872;4.332;2023-07-13T07:00:53;18.70;99.90
39665;DHT22;26679;50.872;4.332;2023-07-13T07:03:19;18.60;99.90
39665;DHT22;26679;50.872;4.332;2023-07-13T07:05:44;18.60;99.90
39665;DHT22;26679;50.872;4.332;2023-07-13T07:08:10;18.60;99.90
39665;DHT22;26679;50.872;4.332;2023-07-13T07:10:35;18.80;99.90
39665;DHT22;26679;50.872;4.332;2023-07-13T07:13:01;18.80;99.90
39665;DHT22;26679;50.872;4.332;2023-07-13T07:15:27;18.70;99.90
39665;DHT22;26679;50.872;4.332;2023-07-13T07:17:52;18.80;99.90
39665;DHT22;26679;50.872;4.332;2023-07-13T07:20:18;18.80;99.90
39665;DHT22;26679;50.872;4.332;2023-07-13T07:22:43;18.90;99.90
39665;DHT22;26679;50.872;4.332;2023-07-13T07:25:09;18.90;99.90
39665;DHT22;26679;50.872;4.332;2023-07-13T07:27:35;19.10;99.90
39665;DHT22;26679;50.872;4.332;2023-07-13T07:30:00;19.10;99.90
39665;DHT22;26679;50.872;4.332;2023-07-13T07:32:26;19.00;99.90
39665;DHT22;26679;50.872;4.332;2023-07-13T07:34:51;19.10;99.90
39665;DHT22;26679;50.872;4.332;2023-07-13T07:37:17;19.10;99.90
39665;DHT22;26679;50.872;4.332;2023-07-13T07:39:43;19.00;99.90
39665;DHT22;26679;50.872;4.332;2023-07-13T07:42:08;19.00;99.90
39665;DHT22;26679;50.872;4.332;2023-07-13T07:44:34;19.00;99.90
39665;DHT22;26679;50.872;4.332;2023-07-13T07:47:00;18.90;99.90
39665;DHT22;26679;50.872;4.332;2023-07-13T07:49:26;19.00;99.90
39665;DHT22;26679;50.872;4.332;2023-07-13T07:51:51;19.10;99.90
39665;DHT22;26679;50.872;4.332;2023-07-13T07:54:17;19.10;99.90
39665;DHT22;26679;50.872;4.332;2023-07-13T07:56:43;19.10;99.90
39665;DHT22;26679;50.872;4.332;2023-07-13T07:59:08;19.00;99.90
39665;DHT22;26679;50.872;4.332;2023-07-13T08:01:34;19.20;99.90
39665;DHT22;26679;50.872;4.332;2023-07-13T08:03:59;19.40;99.90
39665;DHT22;26679;50.872;4.332;2023-07-13T08:06:25;19.60;99.90
39665;DHT22;26679;50.872;4.332;2023-07-13T08:08:50;19.70;99.90
39665;DHT22;26679;50.872;4.332;2023-07-13T08:11:16;19.60;99.90
39665;DHT22;26679;50.872;4.332;2023-07-13T08:13:42;19.60;99.90
39665;DHT22;26679;50.872;4.332;2023-07-13T08:16:07;19.80;99.90
39665;DHT22;26679;50.872;4.332;2023-07-13T08:18:33;19.90;99.90
39665;DHT22;26679;50.872;4.332;2023-07-13T08:21:02;19.90;99.90
39665;DHT22;26679;50.872;4.332;2023-07-13T08:23:28;20.10;99.90
39665;DHT22;26679;50.872;4.332;2023-07-13T08:25:53;20.30;99.90
39665;DHT22;26679;50.872;4.332;2023-07-13T08:28:20;20.20;99.90
39665;DHT22;26679;50.872;4.332;2023-07-13T08:30:45;20.20;99.90
39665;DHT22;26679;50.872;4.332;2023-07-13T08:33:14;20.00;99.90
39665;DHT22;26679;50.872;4.332;2023-07-13T08:35:40;20.30;99.90
39665;DHT22;26679;50.872;4.332;2023-07-13T08:38:05;20.20;99.90
39665;DHT22;26679;50.872;4.332;2023-07-13T08:40:31;20.10;99.90
39665;DHT22;26679;50.872;4.332;2023-07-13T08:42:58;19.90;99.90
39665;DHT22;26679;50.872;4.332;2023-07-13T08:45:30;19.90;99.90
39665;DHT22;26679;50.872;4.332;2023-07-13T08:48:01;20.20;99.90
39665;DHT22;26679;50.872;4.332;2023-07-13T08:50:29;20.50;99.90
39665;DHT22;26679;50.872;4.332;2023-07-13T08:52:55;20.60;99.90
39665;DHT22;26679;50.872;4.332;2023-07-13T08:55:24;20.60;99.90
39665;DHT22;26679;50.872;4.332;2023-07-13T08:58:24;20.70;99.90
39665;DHT22;26679;50.872;4.332;2023-07-13T09:03:12;20.50;99.90
39665;DHT22;26679;50.872;4.332;2023-07-13T09:05:41;20.70;99.90
39665;DHT22;26679;50.872;4.332;2023-07-13T09:10:45;20.90;99.90
39665;DHT22;26679;50.872;4.332;2023-07-13T09:15:44;20.70;99.90
39665;DHT22;26679;50.872;4.332;2023-07-13T09:18:11;20.80;99.90
39665;DHT22;26679;50.872;4.332;2023-07-13T09:20:43;21.10;99.90
39665;DHT22;26679;50.872;4.332;2023-07-13T09:23:12;21.20;99.90
39665;DHT22;26679;50.872;4.332;2023-07-13T09:25:39;21.30;99.90
39665;DHT22;26679;50.872;4.332;2023-07-13T09:28:22;21.30;99.90
39665;DHT22;26679;50.872;4.332;2023-07-13T09:30:52;21.40;99.90
39665;DHT22;26679;50.872;4.332;2023-07-13T09:33:20;21.40;99.90
39665;DHT22;26679;50.872;4.332;2023-07-13T09:35:46;21.70;99.90
39665;DHT22;26679;50.872;4.332;2023-07-13T09:38:15;22.10;99.90
39665;DHT22;26679;50.872;4.332;2023-07-13T09:43:19;21.80;99.90
39665;DHT22;26679;50.872;4.332;2023-07-13T09:45:46;21.80;99.90
39665;DHT22;26679;50.872;4.332;2023-07-13T09:48:13;22.10;99.90
39665;DHT22;26679;50.872;4.332;2023-07-13T09:50:39;22.50;99.90
39665;DHT22;26679;50.872;4.332;2023-07-13T09:53:10;23.20;99.70
39665;DHT22;26679;50.872;4.332;2023-07-13T09:55:38;23.30;99.30
39665;DHT22;26679;50.872;4.332;2023-07-13T09:58:04;23.20;98.50
39665;DHT22;26679;50.872;4.332;2023-07-13T10:00:32;23.20;98.60
39665;DHT22;26679;50.872;4.332;2023-07-13T10:02:59;23.30;97.70
39665;DHT22;26679;50.872;4.332;2023-07-13T10:05:24;23.50;97.60
39665;DHT22;26679;50.872;4.332;2023-07-13T10:07:51;23.90;96.20
39665;DHT22;26679;50.872;4.332;2023-07-13T10:10:18;24.70;94.90
39665;DHT22;26679;50.872;4.332;2023-07-13T10:12:45;25.10;94.20
39665;DHT22;26679;50.872;4.332;2023-07-13T10:15:15;25.50;93.50
39665;DHT22;26679;50.872;4.332;2023-07-13T10:17:41;25.80;93.00
39665;DHT22;26679;50.872;4.332;2023-07-13T10:20:07;25.30;92.80
39665;DHT22;26679;50.872;4.332;2023-07-13T10:22:50;24.50;93.60
39665;DHT22;26679;50.872;4.332;2023-07-13T10:25:18;24.50;94.20
39665;DHT22;26679;50.872;4.332;2023-07-13T10:27:45;24.40;94.70
39665;DHT22;26679;50.872;4.332;2023-07-13T10:30:19;25.00;93.90
39665;DHT22;26679;50.872;4.332;2023-07-13T10:32:45;25.00;93.40
39665;DHT22;26679;50.872;4.332;2023-07-13T10:35:12;25.30;93.10
39665;DHT22;26679;50.872;4.332;2023-07-13T10:40:06;26.20;91.20
39665;DHT22;26679;50.872;4.332;2023-07-13T10:42:39;25.90;91.80
39665;DHT22;26679;50.872;4.332;2023-07-13T10:45:14;25.10;92.70
39665;DHT22;26679;50.872;4.332;2023-07-13T10:47:39;24.40;93.20
39665;DHT22;26679;50.872;4.332;2023-07-13T10:50:05;23.80;93.90
39665;DHT22;26679;50.872;4.332;2023-07-13T10:52:50;23.50;94.90
39665;DHT22;26679;50.872;4.332;2023-07-13T10:55:32;23.50;94.90
39665;DHT22;26679;50.872;4.332;2023-07-13T10:58:02;24.30;93.90
39665;DHT22;26679;50.872;4.332;2023-07-13T11:00:31;25.10;93.00
39665;DHT22;26679;50.872;4.332;2023-07-13T11:02:59;25.40;92.50
39665;DHT22;26679;50.872;4.332;2023-07-13T11:07:54;25.70;92.10
39665;DHT22;26679;50.872;4.332;2023-07-13T11:10:45;25.70;91.80
39665;DHT22;26679;50.872;4.332;2023-07-13T11:13:35;25.80;91.60
39665;DHT22;26679;50.872;4.332;2023-07-13T11:15:57;26.10;91.10
39665;DHT22;26679;50.872;4.332;2023-07-13T11:18:23;26.10;91.20
39665;DHT22;26679;50.872;4.332;2023-07-13T11:20:50;26.20;91.10
39665;DHT22;26679;50.872;4.332;2023-07-13T11:25:42;25.90;91.10
39665;DHT22;26679;50.872;4.332;2023-07-13T11:33:25;25.90;91.10
39665;DHT22;26679;50.872;4.332;2023-07-13T11:38:19;24.60;92.40
39665;DHT22;26679;50.872;4.332;2023-07-13T11:40:46;24.10;92.90
39665;DHT22;26679;50.872;4.332;2023-07-13T11:43:15;23.50;93.20
39665;DHT22;26679;50.872;4.332;2023-07-13T11:45:42;23.10;93.80
39665;DHT22;26679;50.872;4.332;2023-07-13T11:48:21;23.10;94.00
39665;DHT22;26679;50.872;4.332;2023-07-13T11:50:51;22.70;94.40
39665;DHT22;26679;50.872;4.332;2023-07-13T11:53:17;22.60;94.40
39665;DHT22;26679;50.872;4.332;2023-07-13T11:55:42;22.50;94.50
39665;DHT22;26679;50.872;4.332;2023-07-13T11:58:08;22.50;94.80
39665;DHT22;26679;50.872;4.332;2023-07-13T12:00:34;22.40;94.90
39665;DHT22;26679;50.872;4.332;2023-07-13T12:03:01;22.30;95.00
39665;DHT22;26679;50.872;4.332;2023-07-13T12:05:27;22.40;94.90
39665;DHT22;26679;50.872;4.332;2023-07-13T12:07:54;22.50;94.90
39665;DHT22;26679;50.872;4.332;2023-07-13T12:10:27;22.60;94.70
39665;DHT22;26679;50.872;4.332;2023-07-13T12:13:03;22.60;94.80
39665;DHT22;26679;50.872;4.332;2023-07-13T12:15:34;22.70;94.80
39665;DHT22;26679;50.872;4.332;2023-07-13T12:18:02;22.60;94.90
39665;DHT22;26679;50.872;4.332;2023-07-13T12:20:28;22.70;95.00
39665;DHT22;26679;50.872;4.332;2023-07-13T12:22:58;22.60;95.00
39665;DHT22;26679;50.872;4.332;2023-07-13T12:25:24;22.80;94.50
39665;DHT22;26679;50.872;4.332;2023-07-13T12:27:50;22.60;94.60
39665;DHT22;26679;50.872;4.332;2023-07-13T12:33:07;21.70;96.30
39665;DHT22;26679;50.872;4.332;2023-07-13T12:35:38;21.20;98.30
39665;DHT22;26679;50.872;4.332;2023-07-13T12:38:04;20.80;99.90
39665;DHT22;26679;50.872;4.332;2023-07-13T12:40:34;20.20;99.90
39665;DHT22;26679;50.872;4.332;2023-07-13T12:43:00;20.10;99.90
39665;DHT22;26679;50.872;4.332;2023-07-13T12:45:29;20.00;99.90
39665;DHT22;26679;50.872;4.332;2023-07-13T12:48:14;19.80;99.90
39665;DHT22;26679;50.872;4.332;2023-07-13T12:50:41;19.50;99.90
39665;DHT22;26679;50.872;4.332;2023-07-13T12:53:12;19.20;99.90
39665;DHT22;26679;50.872;4.332;2023-07-13T12:55:57;18.90;99.90
39665;DHT22;26679;50.872;4.332;2023-07-13T12:58:27;18.70;99.90
39665;DHT22;26679;50.872;4.332;2023-07-13T13:00:54;18.70;99.90
39665;DHT22;26679;50.872;4.332;2023-07-13T13:03:29;18.70;99.90
39665;DHT22;26679;50.872;4.332;2023-07-13T13:06:01;18.80;99.90
39665;DHT22;26679;50.872;4.332;2023-07-13T13:08:29;19.00;99.90
39665;DHT22;26679;50.872;4.332;2023-07-13T13:10:55;19.60;99.90
39665;DHT22;26679;50.872;4.332;2023-07-13T13:13:20;20.50;99.90
39665;DHT22;26679;50.872;4.332;2023-07-13T13:15:46;21.20;99.90
39665;DHT22;26679;50.872;4.332;2023-07-13T13:18:19;21.20;99.90
39665;DHT22;26679;50.872;4.332;2023-07-13T13:20:45;21.10;99.90
39665;DHT22;26679;50.872;4.332;2023-07-13T13:23:18;21.30;99.90
39665;DHT22;26679;50.872;4.332;2023-07-13T13:25:48;21.50;99.90
39665;DHT22;26679;50.872;4.332;2023-07-13T13:28:15;21.60;99.90
39665;DHT22;26679;50.872;4.332;2023-07-13T13:30:42;22.00;99.90
39665;DHT22;26679;50.872;4.332;2023-07-13T13:33:12;22.40;99.90
39665;DHT22;26679;50.872;4.332;2023-07-13T13:35:38;22.90;99.90
39665;DHT22;26679;50.872;4.332;2023-07-13T13:38:08;23.60;99.90
39665;DHT22;26679;50.872;4.332;2023-07-13T13:40:34;24.30;99.90
39665;DHT22;26679;50.872;4.332;2023-07-13T13:43:00;25.50;99.90
39665;DHT22;26679;50.872;4.332;2023-07-13T13:45:25;26.40;99.90
39665;DHT22;26679;50.872;4.332;2023-07-13T13:47:51;26.70;99.50
39665;DHT22;26679;50.872;4.332;2023-07-13T13:50:17;26.30;98.40
39665;DHT22;26679;50.872;4.332;2023-07-13T13:52:43;25.70;99.30
39665;DHT22;26679;50.872;4.332;2023-07-13T13:55:13;25.20;99.70
39665;DHT22;26679;50.872;4.332;2023-07-13T13:57:38;24.90;99.20
39665;DHT22;26679;50.872;4.332;2023-07-13T14:00:04;24.70;99.90
39665;DHT22;26679;50.872;4.332;2023-07-13T14:02:30;24.50;99.10
39665;DHT22;26679;50.872;4.332;2023-07-13T14:04:58;24.40;99.40
39665;DHT22;26679;50.872;4.332;2023-07-13T14:07:24;24.40;97.90
39665;DHT22;26679;50.872;4.332;2023-07-13T14:09:51;24.10;97.40
39665;DHT22;26679;50.872;4.332;2023-07-13T14:12:17;24.40;98.60
39665;DHT22;26679;50.872;4.332;2023-07-13T14:14:43;24.50;97.00
39665;DHT22;26679;50.872;4.332;2023-07-13T14:17:17;24.40;97.30
39665;DHT22;26679;50.872;4.332;2023-07-13T14:19:47;24.10;97.20
39665;DHT22;26679;50.872;4.332;2023-07-13T14:22:16;24.00;96.50
39665;DHT22;26679;50.872;4.332;2023-07-13T14:24:41;23.80;96.70
39665;DHT22;26679;50.872;4.332;2023-07-13T14:27:08;23.70;96.70
39665;DHT22;26679;50.872;4.332;2023-07-13T14:29:34;23.50;96.60
39665;DHT22;26679;50.872;4.332;2023-07-13T14:31:59;23.30;96.70
39665;DHT22;26679;50.872;4.332;2023-07-13T14:34:25;23.20;97.00
39665;DHT22;26679;50.872;4.332;2023-07-13T14:36:50;23.10;96.90
39665;DHT22;26679;50.872;4.332;2023-07-13T14:39:17;23.20;96.70
39665;DHT22;26679;50.872;4.332;2023-07-13T14:41:43;23.30;96.60
39665;DHT22;26679;50.872;4.332;2023-07-13T14:46:38;24.20;95.80
39665;DHT22;26679;50.872;4.332;2023-07-13T14:49:04;25.40;94.10
39665;DHT22;26679;50.872;4.332;2023-07-13T14:51:31;26.00;93.10
39665;DHT22;26679;50.872;4.332;2023-07-13T14:53:58;26.20;93.10
39665;DHT22;26679;50.872;4.332;2023-07-13T14:56:24;26.80;92.40
39665;DHT22;26679;50.872;4.332;2023-07-13T14:58:50;26.50;91.90
39665;DHT22;26679;50.872;4.332;2023-07-13T15:01:16;26.90;92.60
39665;DHT22;26679;50.872;4.332;2023-07-13T15:03:43;27.40;91.10
39665;DHT22;26679;50.872;4.332;2023-07-13T15:06:10;27.30;90.90
39665;DHT22;26679;50.872;4.332;2023-07-13T15:08:36;27.10;90.40
39665;DHT22;26679;50.872;4.332;2023-07-13T15:11:03;26.80;90.40
39665;DHT22;26679;50.872;4.332;2023-07-13T15:13:30;26.30;90.30
39665;DHT22;26679;50.872;4.332;2023-07-13T15:15:56;25.90;90.60
39665;DHT22;26679;50.872;4.332;2023-07-13T15:18:22;25.50;90.80
39665;DHT22;26679;50.872;4.332;2023-07-13T15:20:48;26.20;90.70
39665;DHT22;26679;50.872;4.332;2023-07-13T15:23:15;27.00;89.80
39665;DHT22;26679;50.872;4.332;2023-07-13T15:25:41;27.30;88.80
39665;DHT22;26679;50.872;4.332;2023-07-13T15:28:06;27.10;88.20
39665;DHT22;26679;50.872;4.332;2023-07-13T15:30:40;26.20;90.00
39665;DHT22;26679;50.872;4.332;2023-07-13T15:33:17;26.50;90.10
39665;DHT22;26679;50.872;4.332;2023-07-13T15:35:44;26.90;89.60
39665;DHT22;26679;50.872;4.332;2023-07-13T15:38:16;26.80;90.00
39665;DHT22;26679;50.872;4.332;2023-07-13T15:40:42;27.30;89.40
39665;DHT22;26679;50.872;4.332;2023-07-13T15:43:11;26.90;89.80
39665;DHT22;26679;50.872;4.332;2023-07-13T15:45:38;27.40;89.60
39665;DHT22;26679;50.872;4.332;2023-07-13T15:48:13;28.00;89.70
39665;DHT22;26679;50.872;4.332;2023-07-13T15:50:46;27.30;89.20
39665;DHT22;26679;50.872;4.332;2023-07-13T15:53:26;27.10;89.30
39665;DHT22;26679;50.872;4.332;2023-07-13T15:55:53;27.90;89.10
39665;DHT22;26679;50.872;4.332;2023-07-13T15:58:19;28.00;85.70
39665;DHT22;26679;50.872;4.332;2023-07-13T16:00:45;27.50;86.30
39665;DHT22;26679;50.872;4.332;2023-07-13T16:03:10;28.20;85.50